sensor_id;sensor_type;location;lat;lon;timestamp;pressure;altitude;pressure_sealevel;temperature;humidity
78016;BME280;67223;51.102;5.882;2024-01-10T00:01:16;102756.16;;;-4.28;100.00
78016;BME280;67223;51.102;5.882;2024-01-10T00:03:41;102763.97;;;-4.29;100.00
78016;BME280;67223;51.102;5.882;2024-01-10T00:06:07;102759.63;;;-4.30;100.00
78016;BME280;67223;51.102;5.882;2024-01-10T00:08:32;102758.66;;;-4.40;100.00
78016;BME280;67223;51.102;5.882;2024-01-10T00:10:58;102756.16;;;-4.29;100.00
78016;BME280;67223;51.102;5.882;2024-01-10T00:13:23;102754.38;;;-4.33;100.00
78016;BME280;67223;51.102;5.882;2024-01-10T00:15:49;102747.31;;;-4.44;100.00
78016;BME280;67223;51.102;5.882;2024-01-10T00:18:14;102752.53;;;-4.44;100.00
78016;BME280;67223;51.102;5.882;2024-01-10T00:20:40;102747.34;;;-4.41;100.00
78016;BME280;67223;51.102;5.882;2024-01-10T00:23:05;102750.69;;;-4.54;100.00
78016;BME280;67223;51.102;5.882;2024-01-10T00:25:32;102744.63;;;-4.51;100.00
78016;BME280;67223;51.102;5.882;2024-01-10T00:27:57;102751.56;;;-4.53;100.00
78016;BME280;67223;51.102;5.882;2024-01-10T00:30:25;102738.44;;;-4.58;100.00
78016;BME280;67223;51.102;5.882;2024-01-10T00:32:50;102735.84;;;-4.59;100.00
78016;BME280;67223;51.102;5.882;2024-01-10T00:35:16;102735.97;;;-4.47;100.00
78016;BME280;67223;51.102;5.882;2024-01-10T00:37:41;102744.59;;;-4.54;100.00
78016;BME280;67223;51.102;5.882;2024-01-10T00:40:07;102741.94;;;-4.57;100.00
78016;BME280;67223;51.102;5.882;2024-01-10T00:42:33;102736.66;;;-4.62;100.00
78016;BME280;67223;51.102;5.882;2024-01-10T00:44:58;102732.25;;;-4.70;100.00
78016;BME280;67223;51.102;5.882;2024-01-10T00:47:24;102738.31;;;-4.71;100.00
78016;BME280;67223;51.102;5.882;2024-01-10T00:49:49;102739.16;;;-4.74;100.00
78016;BME280;67223;51.102;5.882;2024-01-10T00:52:15;102733.06;;;-4.74;100.00
78016;BME280;67223;51.102;5.882;2024-01-10T00:54:40;102734.81;;;-4.72;100.00
78016;BME280;67223;51.102;5.882;2024-01-10T00:57:05;102730.53;;;-4.68;100.00
78016;BME280;67223;51.102;5.882;2024-01-10T00:59:31;102737.44;;;-4.70;100.00
78016;BME280;67223;51.102;5.882;2024-01-10T01:01:56;102736.53;;;-4.75;100.00
78016;BME280;67223;51.102;5.882;2024-01-10T01:04:21;102734.84;;;-4.70;100.00
78016;BME280;67223;51.102;5.882;2024-01-10T01:06:47;102728.72;;;-4.75;100.00
78016;BME280;67223;51.102;5.882;2024-01-10T01:09:12;102725.25;;;-4.74;100.00
78016;BME280;67223;51.102;5.882;2024-01-10T01:11:40;102719.97;;;-4.81;100.00
78016;BME280;67223;51.102;5.882;2024-01-10T01:14:06;102718.97;;;-4.90;100.00
78016;BME280;67223;51.102;5.882;2024-01-10T01:16:31;102725.16;;;-4.82;100.00
78016;BME280;67223;51.102;5.882;2024-01-10T01:18:57;102726.03;;;-4.82;100.00
78016;BME280;67223;51.102;5.882;2024-01-10T01:21:22;102729.47;;;-4.83;100.00
78016;BME280;67223;51.102;5.882;2024-01-10T01:23:48;102723.34;;;-4.88;100.00
78016;BME280;67223;51.102;5.882;2024-01-10T01:26:13;102731.09;;;-4.94;100.00
78016;BME280;67223;51.102;5.882;2024-01-10T01:28:39;102722.47;;;-4.90;100.00
78016;BME280;67223;51.102;5.882;2024-01-10T01:31:05;102720.63;;;-4.98;100.00
78016;BME280;67223;51.102;5.882;2024-01-10T01:33:30;102724.94;;;-5.00;100.00
78016;BME280;67223;51.102;5.882;2024-01-10T01:35:56;102721.31;;;-5.11;100.00
78016;BME280;67223;51.102;5.882;2024-01-10T01:38:21;102728.31;;;-5.07;100.00
78016;BME280;67223;51.102;5.882;2024-01-10T01:40:47;102721.31;;;-5.11;100.00
78016;BME280;67223;51.102;5.882;2024-01-10T01:43:20;102717.84;;;-5.10;100.00
78016;BME280;67223;51.102;5.882;2024-01-10T01:45:47;102715.22;;;-5.13;100.00
78016;BME280;67223;51.102;5.882;2024-01-10T01:48:14;102708.28;;;-5.11;100.00
78016;BME280;67223;51.102;5.882;2024-01-10T01:50:40;102709.25;;;-5.05;100.00
78016;BME280;67223;51.102;5.882;2024-01-10T01:53:06;102713.56;;;-5.08;100.00
78016;BME280;67223;51.102;5.882;2024-01-10T01:55:32;102716.09;;;-5.11;100.00
78016;BME280;67223;51.102;5.882;2024-01-10T01:57:57;102709.19;;;-5.09;100.00
78016;BME280;67223;51.102;5.882;2024-01-10T02:00:22;102703.06;;;-5.11;100.00
78016;BME280;67223;51.102;5.882;2024-01-10T02:02:48;102709.19;;;-5.08;100.00
78016;BME280;67223;51.102;5.882;2024-01-10T02:05:14;102698.69;;;-5.15;100.00
78016;BME280;67223;51.102;5.882;2024-01-10T02:07:40;102706.50;;;-5.15;100.00
78016;BME280;67223;51.102;5.882;2024-01-10T02:10:06;102716.00;;;-5.19;100.00
78016;BME280;67223;51.102;5.882;2024-01-10T02:12:32;102704.66;;;-5.23;100.00
78016;BME280;67223;51.102;5.882;2024-01-10T02:14:57;102708.16;;;-5.21;100.00
78016;BME280;67223;51.102;5.882;2024-01-10T02:17:23;102705.53;;;-5.24;100.00
78016;BME280;67223;51.102;5.882;2024-01-10T02:19:48;102703.94;;;-5.11;100.00
78016;BME280;67223;51.102;5.882;2024-01-10T02:22:13;102700.38;;;-5.17;100.00
78016;BME280;67223;51.102;5.882;2024-01-10T02:24:39;102697.69;;;-5.25;100.00
78016;BME280;67223;51.102;5.882;2024-01-10T02:27:04;102696.00;;;-5.23;100.00
78016;BME280;67223;51.102;5.882;2024-01-10T02:29:30;102693.25;;;-5.32;100.00
78016;BME280;67223;51.102;5.882;2024-01-10T02:31:56;102695.91;;;-5.28;100.00
78016;BME280;67223;51.102;5.882;2024-01-10T02:34:21;102691.63;;;-5.26;100.00
78016;BME280;67223;51.102;5.882;2024-01-10T02:36:46;102698.59;;;-5.23;100.00
78016;BME280;67223;51.102;5.882;2024-01-10T02:39:12;102698.59;;;-5.23;100.00
78016;BME280;67223;51.102;5.882;2024-01-10T02:41:37;102690.75;;;-5.25;100.00
78016;BME280;67223;51.102;5.882;2024-01-10T02:44:02;102691.59;;;-5.29;100.00
78016;BME280;67223;51.102;5.882;2024-01-10T02:46:28;102671.47;;;-5.40;100.00
78016;BME280;67223;51.102;5.882;2024-01-10T02:48:54;102675.03;;;-5.32;100.00
78016;BME280;67223;51.102;5.882;2024-01-10T02:51:21;102675.84;;;-5.36;100.00
78016;BME280;67223;51.102;5.882;2024-01-10T02:53:47;102675.06;;;-5.31;100.00
78016;BME280;67223;51.102;5.882;2024-01-10T02:56:12;102681.09;;;-5.35;100.00
78016;BME280;67223;51.102;5.882;2024-01-10T02:58:37;102674.97;;;-5.38;100.00
78016;BME280;67223;51.102;5.882;2024-01-10T03:03:38;102679.31;;;-5.36;100.00
78016;BME280;67223;51.102;5.882;2024-01-10T03:06:04;102677.47;;;-5.43;100.00
78016;BME280;67223;51.102;5.882;2024-01-10T03:08:29;102675.78;;;-5.41;100.00
78016;BME280;67223;51.102;5.882;2024-01-10T03:10:55;102669.63;;;-5.49;100.00
78016;BME280;67223;51.102;5.882;2024-01-10T03:13:20;102672.97;;;-5.56;100.00
78016;BME280;67223;51.102;5.882;2024-01-10T03:15:46;102660.09;;;-5.48;100.00
78016;BME280;67223;51.102;5.882;2024-01-10T03:18:11;102665.34;;;-5.44;100.00
78016;BME280;67223;51.102;5.882;2024-01-10T03:20:37;102664.53;;;-5.40;100.00
78016;BME280;67223;51.102;5.882;2024-01-10T03:23:02;102670.66;;;-5.35;100.00
78016;BME280;67223;51.102;5.882;2024-01-10T03:25:28;102661.94;;;-5.37;100.00
78016;BME280;67223;51.102;5.882;2024-01-10T03:27:53;102662.72;;;-5.45;100.00
78016;BME280;67223;51.102;5.882;2024-01-10T03:30:18;102662.81;;;-5.38;100.00
78016;BME280;67223;51.102;5.882;2024-01-10T03:32:45;102655.88;;;-5.39;100.00
78016;BME280;67223;51.102;5.882;2024-01-10T03:35:10;102658.41;;;-5.43;100.00
78016;BME280;67223;51.102;5.882;2024-01-10T03:37:35;102659.34;;;-5.37;100.00
78016;BME280;67223;51.102;5.882;2024-01-10T03:40:01;102664.53;;;-5.40;100.00
78016;BME280;67223;51.102;5.882;2024-01-10T03:42:26;102650.50;;;-5.48;100.00
78016;BME280;67223;51.102;5.882;2024-01-10T03:44:52;102646.22;;;-5.46;100.00
78016;BME280;67223;51.102;5.882;2024-01-10T03:47:17;102649.72;;;-5.44;100.00
78016;BME280;67223;51.102;5.882;2024-01-10T03:49:43;102647.06;;;-5.47;100.00
78016;BME280;67223;51.102;5.882;2024-01-10T03:52:08;102652.34;;;-5.44;100.00
78016;BME280;67223;51.102;5.882;2024-01-10T03:54:33;102655.78;;;-5.45;100.00
78016;BME280;67223;51.102;5.882;2024-01-10T03:56:59;102653.13;;;-5.49;100.00
78016;BME280;67223;51.102;5.882;2024-01-10T03:59:24;102643.66;;;-5.44;100.00
78016;BME280;67223;51.102;5.882;2024-01-10T04:01:50;102646.09;;;-5.55;100.00
78016;BME280;67223;51.102;5.882;2024-01-10T04:04:15;102654.00;;;-5.47;100.00
78016;BME280;67223;51.102;5.882;2024-01-10T04:06:40;102653.13;;;-5.48;100.00
78016;BME280;67223;51.102;5.882;2024-01-10T04:09:06;102648.84;;;-5.44;100.00
78016;BME280;67223;51.102;5.882;2024-01-10T04:11:33;102655.69;;;-5.51;100.00
78016;BME280;67223;51.102;5.882;2024-01-10T04:13:59;102641.81;;;-5.53;100.00
78016;BME280;67223;51.102;5.882;2024-01-10T04:16:25;102651.34;;;-5.52;100.00
78016;BME280;67223;51.102;5.882;2024-01-10T04:18:51;102650.47;;;-5.52;100.00
78016;BME280;67223;51.102;5.882;2024-01-10T04:21:16;102639.19;;;-5.51;100.00
78016;BME280;67223;51.102;5.882;2024-01-10T04:23:42;102637.44;;;-5.54;100.00
78016;BME280;67223;51.102;5.882;2024-01-10T04:26:07;102636.53;;;-5.56;100.00
78016;BME280;67223;51.102;5.882;2024-01-10T04:28:32;102638.38;;;-5.49;100.00
78016;BME280;67223;51.102;5.882;2024-01-10T04:30:58;102633.13;;;-5.52;100.00
78016;BME280;67223;51.102;5.882;2024-01-10T04:33:23;102629.47;;;-5.66;100.00
78016;BME280;67223;51.102;5.882;2024-01-10T04:35:49;102630.56;;;-5.49;100.00
78016;BME280;67223;51.102;5.882;2024-01-10T04:38:14;102638.31;;;-5.52;100.00
78016;BME280;67223;51.102;5.882;2024-01-10T04:40:39;102629.63;;;-5.54;100.00
78016;BME280;67223;51.102;5.882;2024-01-10T04:43:05;102634.88;;;-5.51;100.00
78016;BME280;67223;51.102;5.882;2024-01-10T04:45:30;102634.91;;;-5.48;100.00
78016;BME280;67223;51.102;5.882;2024-01-10T04:47:55;102633.97;;;-5.54;100.00
78016;BME280;67223;51.102;5.882;2024-01-10T04:50:21;102628.72;;;-5.56;100.00
78016;BME280;67223;51.102;5.882;2024-01-10T04:52:46;102630.56;;;-5.49;100.00
78016;BME280;67223;51.102;5.882;2024-01-10T04:55:12;102631.34;;;-5.56;100.00
78016;BME280;67223;51.102;5.882;2024-01-10T04:57:37;102638.41;;;-5.46;100.00
78016;BME280;67223;51.102;5.882;2024-01-10T05:00:03;102641.91;;;-5.44;100.00
78016;BME280;67223;51.102;5.882;2024-01-10T05:02:29;102641.09;;;-5.40;100.00
78016;BME280;67223;51.102;5.882;2024-01-10T05:04:55;102638.31;;;-5.52;100.00
78016;BME280;67223;51.102;5.882;2024-01-10T05:07:20;102637.31;;;-5.61;100.00
78016;BME280;67223;51.102;5.882;2024-01-10T05:09:46;102634.81;;;-5.55;100.00
78016;BME280;67223;51.102;5.882;2024-01-10T05:12:11;102630.53;;;-5.50;100.00
78016;BME280;67223;51.102;5.882;2024-01-10T05:14:36;102622.50;;;-5.69;100.00
78016;BME280;67223;51.102;5.882;2024-01-10T05:17:02;102634.78;;;-5.57;100.00
78016;BME280;67223;51.102;5.882;2024-01-10T05:19:28;102636.59;;;-5.53;100.00
78016;BME280;67223;51.102;5.882;2024-01-10T05:21:54;102636.59;;;-5.53;100.00
78016;BME280;67223;51.102;5.882;2024-01-10T05:24:20;102638.31;;;-5.52;100.00
78016;BME280;67223;51.102;5.882;2024-01-10T05:26:45;102632.28;;;-5.49;100.00
78016;BME280;67223;51.102;5.882;2024-01-10T05:29:11;102629.63;;;-5.54;100.00
78016;BME280;67223;51.102;5.882;2024-01-10T05:31:36;102628.78;;;-5.51;100.00
78016;BME280;67223;51.102;5.882;2024-01-10T05:34:02;102633.09;;;-5.55;100.00
78016;BME280;67223;51.102;5.882;2024-01-10T05:36:27;102628.53;;;-5.71;100.00
78016;BME280;67223;51.102;5.882;2024-01-10T05:38:52;102625.91;;;-5.71;100.00
78016;BME280;67223;51.102;5.882;2024-01-10T05:41:18;102620.59;;;-5.80;100.00
78016;BME280;67223;51.102;5.882;2024-01-10T05:43:43;102632.75;;;-5.79;100.00
78016;BME280;67223;51.102;5.882;2024-01-10T05:46:09;102622.47;;;-5.70;100.00
78016;BME280;67223;51.102;5.882;2024-01-10T05:48:35;102630.25;;;-5.72;100.00
78016;BME280;67223;51.102;5.882;2024-01-10T05:51:01;102632.97;;;-5.63;100.00
78016;BME280;67223;51.102;5.882;2024-01-10T05:53:26;102631.31;;;-5.59;100.00
78016;BME280;67223;51.102;5.882;2024-01-10T05:55:52;102626.03;;;-5.63;100.00
78016;BME280;67223;51.102;5.882;2024-01-10T05:58:18;102629.69;;;-5.48;100.00
78016;BME280;67223;51.102;5.882;2024-01-10T06:00:43;102636.50;;;-5.57;100.00
78016;BME280;67223;51.102;5.882;2024-01-10T06:03:08;102626.09;;;-5.57;100.00
78016;BME280;67223;51.102;5.882;2024-01-10T06:05:34;102627.84;;;-5.56;100.00
78016;BME280;67223;51.102;5.882;2024-01-10T06:08:00;102625.41;;;-5.46;100.00
78016;BME280;67223;51.102;5.882;2024-01-10T06:10:25;102625.25;;;-5.56;100.00
78016;BME280;67223;51.102;5.882;2024-01-10T06:12:50;102619.25;;;-5.51;100.00
78016;BME280;67223;51.102;5.882;2024-01-10T06:15:16;102623.00;;;-5.28;100.00
78016;BME280;67223;51.102;5.882;2024-01-10T06:17:41;102624.69;;;-5.33;100.00
78016;BME280;67223;51.102;5.882;2024-01-10T06:20:07;102629.81;;;-5.40;100.00
78016;BME280;67223;51.102;5.882;2024-01-10T06:22:33;102631.31;;;-5.59;100.00
78016;BME280;67223;51.102;5.882;2024-01-10T06:24:58;102622.19;;;-5.25;100.00
78016;BME280;67223;51.102;5.882;2024-01-10T06:27:24;102618.09;;;-5.03;100.00
78016;BME280;67223;51.102;5.882;2024-01-10T06:29:49;102629.88;;;-5.33;100.00
78016;BME280;67223;51.102;5.882;2024-01-10T06:32:15;102617.81;;;-5.28;100.00
78016;BME280;67223;51.102;5.882;2024-01-10T06:34:40;102622.97;;;-5.31;100.00
78016;BME280;67223;51.102;5.882;2024-01-10T06:37:06;102607.44;;;-5.25;100.00
78016;BME280;67223;51.102;5.882;2024-01-10T06:39:34;102604.28;;;-4.96;100.00
78016;BME280;67223;51.102;5.882;2024-01-10T06:42:00;102592.34;;;-3.48;100.00
78016;BME280;67223;51.102;5.882;2024-01-10T06:44:25;102595.94;;;-3.20;100.00
78016;BME280;67223;51.102;5.882;2024-01-10T06:46:53;102600.13;;;-3.58;100.00
78016;BME280;67223;51.102;5.882;2024-01-10T06:49:18;102601.25;;;-2.89;100.00
78016;BME280;67223;51.102;5.882;2024-01-10T06:51:43;102601.00;;;-3.56;100.00
78016;BME280;67223;51.102;5.882;2024-01-10T06:54:09;102615.38;;;-4.25;100.00
78016;BME280;67223;51.102;5.882;2024-01-10T06:56:34;102606.03;;;-3.94;100.00
78016;BME280;67223;51.102;5.882;2024-01-10T06:59:00;102600.78;;;-3.99;100.00
78016;BME280;67223;51.102;5.882;2024-01-10T07:01:26;102609.50;;;-3.94;100.00
78016;BME280;67223;51.102;5.882;2024-01-10T07:03:52;102605.25;;;-3.76;100.00
78016;BME280;67223;51.102;5.882;2024-01-10T07:06:18;102610.28;;;-4.07;100.00
78016;BME280;67223;51.102;5.882;2024-01-10T07:08:44;102612.50;;;-4.55;100.00
78016;BME280;67223;51.102;5.882;2024-01-10T07:11:12;102610.47;;;-3.76;100.00
78016;BME280;67223;51.102;5.882;2024-01-10T07:13:38;102624.72;;;-4.48;100.00
78016;BME280;67223;51.102;5.882;2024-01-10T07:16:04;102615.59;;;-4.93;100.00
78016;BME280;67223;51.102;5.882;2024-01-10T07:18:29;102621.88;;;-4.74;100.00
78016;BME280;67223;51.102;5.882;2024-01-10T07:20:56;102619.88;;;-4.99;100.00
78016;BME280;67223;51.102;5.882;2024-01-10T07:23:21;102624.91;;;-5.14;100.00
78016;BME280;67223;51.102;5.882;2024-01-10T07:25:48;102623.03;;;-5.26;100.00
78016;BME280;67223;51.102;5.882;2024-01-10T07:28:13;102627.28;;;-5.33;100.00
78016;BME280;67223;51.102;5.882;2024-01-10T07:30:39;102632.59;;;-5.25;100.00
78016;BME280;67223;51.102;5.882;2024-01-10T07:33:04;102631.53;;;-5.41;100.00
78016;BME280;67223;51.102;5.882;2024-01-10T07:35:30;102637.59;;;-5.42;100.00
78016;BME280;67223;51.102;5.882;2024-01-10T07:37:55;102630.63;;;-5.43;100.00
78016;BME280;67223;51.102;5.882;2024-01-10T07:40:21;102635.84;;;-5.44;100.00
78016;BME280;67223;51.102;5.882;2024-01-10T07:42:47;102646.19;;;-5.49;100.00
78016;BME280;67223;51.102;5.882;2024-01-10T07:45:13;102640.06;;;-5.54;100.00
78016;BME280;67223;51.102;5.882;2024-01-10T07:47:38;102640.84;;;-5.59;100.00
78016;BME280;67223;51.102;5.882;2024-01-10T07:50:05;102641.81;;;-5.53;100.00
78016;BME280;67223;51.102;5.882;2024-01-10T07:52:30;102642.69;;;-5.51;100.00
78016;BME280;67223;51.102;5.882;2024-01-10T07:54:56;102638.19;;;-5.61;100.00
78016;BME280;67223;51.102;5.882;2024-01-10T07:57:22;102641.06;;;-5.41;100.00
78016;BME280;67223;51.102;5.882;2024-01-10T07:59:47;102640.00;;;-5.58;100.00
78016;BME280;67223;51.102;5.882;2024-01-10T08:02:13;102638.25;;;-5.58;100.00
78016;BME280;67223;51.102;5.882;2024-01-10T08:04:38;102645.06;;;-5.66;100.00
78016;BME280;67223;51.102;5.882;2024-01-10T08:07:04;102638.38;;;-5.49;100.00
78016;BME280;67223;51.102;5.882;2024-01-10T08:09:29;102640.06;;;-5.54;100.00
78016;BME280;67223;51.102;5.882;2024-01-10T08:11:55;102634.72;;;-5.61;100.00
78016;BME280;67223;51.102;5.882;2024-01-10T08:14:20;102645.06;;;-5.66;100.00
78016;BME280;67223;51.102;5.882;2024-01-10T08:16:46;102644.28;;;-5.60;100.00
78016;BME280;67223;51.102;5.882;2024-01-10T08:19:11;102640.88;;;-5.58;100.00
78016;BME280;67223;51.102;5.882;2024-01-10T08:21:37;102638.28;;;-5.55;100.00
78016;BME280;67223;51.102;5.882;2024-01-10T08:24:02;102644.31;;;-5.57;100.00
78016;BME280;67223;51.102;5.882;2024-01-10T08:26:28;102638.53;;;-5.37;100.00
78016;BME280;67223;51.102;5.882;2024-01-10T08:28:54;102646.34;;;-5.38;100.00
78016;BME280;67223;51.102;5.882;2024-01-10T08:31:20;102654.22;;;-5.31;100.00
78016;BME280;67223;51.102;5.882;2024-01-10T08:33:45;102650.09;;;-5.15;100.00
78016;BME280;67223;51.102;5.882;2024-01-10T08:36:12;102658.09;;;-4.98;100.00
78016;BME280;67223;51.102;5.882;2024-01-10T08:38:38;102658.31;;;-4.80;100.00
78016;BME280;67223;51.102;5.882;2024-01-10T08:41:04;102661.78;;;-4.80;100.00
78016;BME280;67223;51.102;5.882;2024-01-10T08:43:29;102664.38;;;-4.81;100.00
78016;BME280;67223;51.102;5.882;2024-01-10T08:45:56;102661.06;;;-4.65;100.00
78016;BME280;67223;51.102;5.882;2024-01-10T08:48:23;102665.63;;;-4.43;100.00
78016;BME280;67223;51.102;5.882;2024-01-10T08:50:48;102661.56;;;-4.07;100.00
78016;BME280;67223;51.102;5.882;2024-01-10T08:53:14;102666.75;;;-4.13;100.00
78016;BME280;67223;51.102;5.882;2024-01-10T08:55:39;102674.81;;;-3.81;100.00
78016;BME280;67223;51.102;5.882;2024-01-10T08:58:05;102679.22;;;-3.73;100.00
78016;BME280;67223;51.102;5.882;2024-01-10T09:00:30;102677.06;;;-2.82;100.00
78016;BME280;67223;51.102;5.882;2024-01-10T09:02:56;102676.31;;;-1.85;100.00
78016;BME280;67223;51.102;5.882;2024-01-10T09:05:22;102671.84;;;-1.36;100.00
78016;BME280;67223;51.102;5.882;2024-01-10T09:07:48;102677.16;;;-2.36;100.00
78016;BME280;67223;51.102;5.882;2024-01-10T09:10:13;102681.25;;;-0.83;100.00
78016;BME280;67223;51.102;5.882;2024-01-10T09:12:38;102684.94;;;-1.39;100.00
78016;BME280;67223;51.102;5.882;2024-01-10T09:15:04;102682.41;;;-2.18;100.00
78016;BME280;67223;51.102;5.882;2024-01-10T09:17:30;102680.59;;;-1.54;100.00
78016;BME280;67223;51.102;5.882;2024-01-10T09:19:55;102684.13;;;-1.58;100.00
78016;BME280;67223;51.102;5.882;2024-01-10T09:22:21;102685.91;;;-1.86;100.00
78016;BME280;67223;51.102;5.882;2024-01-10T09:24:47;102678.84;;;-1.41;100.00
78016;BME280;67223;51.102;5.882;2024-01-10T09:27:12;102682.16;;;-0.94;100.00
78016;BME280;67223;51.102;5.882;2024-01-10T09:29:38;102682.94;;;-0.70;100.00
78016;BME280;67223;51.102;5.882;2024-01-10T09:32:03;102689.81;;;-0.53;100.00
78016;BME280;67223;51.102;5.882;2024-01-10T09:34:29;102679.97;;;1.40;100.00
78016;BME280;67223;51.102;5.882;2024-01-10T09:36:54;102682.25;;;1.00;100.00
78016;BME280;67223;51.102;5.882;2024-01-10T09:39:20;102685.88;;;0.06;100.00
78016;BME280;67223;51.102;5.882;2024-01-10T09:41:47;102697.31;;;0.04;100.00
78016;BME280;67223;51.102;5.882;2024-01-10T09:44:16;102694.63;;;0.10;100.00
78016;BME280;67223;51.102;5.882;2024-01-10T09:46:46;102692.13;;;1.50;100.00
78016;BME280;67223;51.102;5.882;2024-01-10T09:49:11;102698.31;;;0.79;100.00
78016;BME280;67223;51.102;5.882;2024-01-10T09:51:37;102697.00;;;0.37;100.00
78016;BME280;67223;51.102;5.882;2024-01-10T09:54:03;102698.22;;;1.54;100.00
78016;BME280;67223;51.102;5.882;2024-01-10T09:56:31;102711.00;;;1.15;100.00
78016;BME280;67223;51.102;5.882;2024-01-10T09:58:58;102707.97;;;1.49;100.00
78016;BME280;67223;51.102;5.882;2024-01-10T10:01:26;102709.44;;;1.02;100.00
78016;BME280;67223;51.102;5.882;2024-01-10T10:03:53;102707.25;;;0.61;100.00
78016;BME280;67223;51.102;5.882;2024-01-10T10:06:21;102716.47;;;0.15;100.00
78016;BME280;67223;51.102;5.882;2024-01-10T10:08:47;102711.75;;;0.50;100.00
78016;BME280;67223;51.102;5.882;2024-01-10T10:11:13;102713.31;;;1.41;100.00
78016;BME280;67223;51.102;5.882;2024-01-10T10:13:43;102707.56;;;1.74;100.00
78016;BME280;67223;51.102;5.882;2024-01-10T10:16:10;102700.19;;;1.98;100.00
78016;BME280;67223;51.102;5.882;2024-01-10T10:18:38;102710.66;;;1.44;100.00
78016;BME280;67223;51.102;5.882;2024-01-10T10:21:14;102697.84;;;2.33;100.00
78016;BME280;67223;51.102;5.882;2024-01-10T10:23:43;102698.00;;;2.24;100.00
78016;BME280;67223;51.102;5.882;2024-01-10T10:26:16;102697.00;;;2.77;100.00
78016;BME280;67223;51.102;5.882;2024-01-10T10:28:46;102698.41;;;3.75;100.00
78016;BME280;67223;51.102;5.882;2024-01-10T10:31:12;102685.31;;;3.70;100.00
78016;BME280;67223;51.102;5.882;2024-01-10T10:33:39;102705.19;;;1.56;98.21
78016;BME280;67223;51.102;5.882;2024-01-10T10:36:05;102697.38;;;2.57;100.00
78016;BME280;67223;51.102;5.882;2024-01-10T10:38:31;102694.06;;;2.46;100.00
78016;BME280;67223;51.102;5.882;2024-01-10T10:40:58;102701.47;;;1.72;100.00
78016;BME280;67223;51.102;5.882;2024-01-10T10:43:25;102699.84;;;1.62;100.00
78016;BME280;67223;51.102;5.882;2024-01-10T10:45:51;102681.75;;;1.98;100.00
78016;BME280;67223;51.102;5.882;2024-01-10T10:48:20;102692.22;;;2.01;100.00
78016;BME280;67223;51.102;5.882;2024-01-10T10:53:34;102689.34;;;2.16;100.00
78016;BME280;67223;51.102;5.882;2024-01-10T10:56:02;102685.97;;;3.01;100.00
78016;BME280;67223;51.102;5.882;2024-01-10T10:58:32;102688.59;;;2.57;94.82
78016;BME280;67223;51.102;5.882;2024-01-10T11:00:59;102689.97;;;3.19;100.00
78016;BME280;67223;51.102;5.882;2024-01-10T11:03:25;102686.19;;;3.32;99.89
78016;BME280;67223;51.102;5.882;2024-01-10T11:05:53;102691.59;;;3.65;98.16
78016;BME280;67223;51.102;5.882;2024-01-10T11:08:20;102684.50;;;3.68;93.89
78016;BME280;67223;51.102;5.882;2024-01-10T11:10:49;102687.22;;;4.34;94.76
78016;BME280;67223;51.102;5.882;2024-01-10T11:24:40;102677.28;;;3.36;77.01
78016;BME280;67223;51.102;5.882;2024-01-10T11:27:13;102678.16;;;2.52;74.33
78016;BME280;67223;51.102;5.882;2024-01-10T11:29:40;102670.47;;;3.65;77.42
78016;BME280;67223;51.102;5.882;2024-01-10T11:32:15;102676.84;;;3.56;79.24
78016;BME280;67223;51.102;5.882;2024-01-10T11:37:19;102666.28;;;4.27;86.33
78016;BME280;67223;51.102;5.882;2024-01-10T11:39:44;102668.97;;;4.25;74.53
78016;BME280;67223;51.102;5.882;2024-01-10T11:42:10;102665.16;;;4.03;74.30
78016;BME280;67223;51.102;5.882;2024-01-10T11:44:49;102661.78;;;3.97;71.95
78016;BME280;67223;51.102;5.882;2024-01-10T11:47:15;102660.56;;;4.10;71.43
78016;BME280;67223;51.102;5.882;2024-01-10T11:49:53;102661.53;;;3.33;69.83
78016;BME280;67223;51.102;5.882;2024-01-10T11:52:21;102669.81;;;3.92;67.22
78016;BME280;67223;51.102;5.882;2024-01-10T11:54:47;102658.53;;;3.49;69.34
78016;BME280;67223;51.102;5.882;2024-01-10T11:57:22;102658.38;;;3.55;69.84
78016;BME280;67223;51.102;5.882;2024-01-10T11:59:51;102654.69;;;4.32;68.64
78016;BME280;67223;51.102;5.882;2024-01-10T12:02:17;102649.69;;;4.20;63.98
78016;BME280;67223;51.102;5.882;2024-01-10T12:04:43;102647.94;;;3.85;62.19
78016;BME280;67223;51.102;5.882;2024-01-10T12:07:11;102640.28;;;4.10;61.63
78016;BME280;67223;51.102;5.882;2024-01-10T12:09:37;102647.81;;;4.58;66.76
78016;BME280;67223;51.102;5.882;2024-01-10T12:12:03;102642.84;;;4.46;63.42
78016;BME280;67223;51.102;5.882;2024-01-10T12:14:28;102642.25;;;4.02;62.65
78016;BME280;67223;51.102;5.882;2024-01-10T12:16:54;102633.75;;;4.23;74.45
78016;BME280;67223;51.102;5.882;2024-01-10T12:19:19;102636.75;;;3.76;69.83
78016;BME280;67223;51.102;5.882;2024-01-10T12:21:45;102629.66;;;3.01;72.00
78016;BME280;67223;51.102;5.882;2024-01-10T12:24:10;102631.22;;;3.10;73.68
78016;BME280;67223;51.102;5.882;2024-01-10T12:26:45;102634.13;;;2.54;82.44
78016;BME280;67223;51.102;5.882;2024-01-10T12:29:11;102644.97;;;2.39;82.00
78016;BME280;67223;51.102;5.882;2024-01-10T12:31:37;102650.78;;;3.01;77.69
78016;BME280;67223;51.102;5.882;2024-01-10T12:34:07;102635.56;;;2.25;76.35
78016;BME280;67223;51.102;5.882;2024-01-10T12:36:33;102637.50;;;2.63;77.85
78016;BME280;67223;51.102;5.882;2024-01-10T12:38:59;102621.25;;;2.84;83.02
78016;BME280;67223;51.102;5.882;2024-01-10T12:41:26;102633.72;;;2.76;77.19
78016;BME280;67223;51.102;5.882;2024-01-10T12:43:55;102615.56;;;3.42;81.14
78016;BME280;67223;51.102;5.882;2024-01-10T12:46:21;102612.09;;;2.14;74.97
78016;BME280;67223;51.102;5.882;2024-01-10T12:49:04;102605.88;;;3.02;76.09
78016;BME280;67223;51.102;5.882;2024-01-10T12:51:31;102615.00;;;2.45;75.48
78016;BME280;67223;51.102;5.882;2024-01-10T12:53:57;102602.00;;;1.88;77.68
78016;BME280;67223;51.102;5.882;2024-01-10T12:56:24;102607.78;;;1.55;76.27